Time,TemperatureF,DewpointF,PressureIn,WindDirection,WindDirectionDegrees,WindSpeedMPH,WindSpeedGustMPH,Humidity,HourlyPrecipIn,Conditions,Clouds,dailyrainin,SoftwareType,DateUTC
2013-09-20 00:00:00,66.0,66.0,29.93,North,3,0.0,0.0,100,0.00,,---,0.00,VWS V14.01,2013-09-20 04:00:00,
2013-09-20 00:10:00,65.8,65.5,29.93,North,3,0.0,0.0,99,0.00,,---,0.00,VWS V14.01,2013-09-20 04:10:00,
2013-09-20 00:20:00,65.6,65.0,29.93,North,3,0.0,0.0,98,0.00,,---,0.00,VWS V14.01,2013-09-20 04:20:00,
2013-09-20 00:30:00,65.2,64.6,29.93,North,3,0.0,0.0,98,0.00,,---,0.00,VWS V14.01,2013-09-20 04:30:00,
2013-09-20 00:40:00,64.8,64.5,29.93,North,3,0.0,0.0,99,0.00,,---,0.00,VWS V14.01,2013-09-20 04:40:00,
2013-09-20 00:50:00,64.7,64.7,29.93,North,3,0.0,0.0,100,0.00,,---,0.00,VWS V14.01,2013-09-20 04:50:00,
2013-09-20 01:00:00,64.5,64.5,29.93,North,3,0.0,0.0,100,0.00,,---,0.00,VWS V14.01,2013-09-20 05:00:00,
2013-09-20 01:10:00,64.5,64.5,29.93,North,3,0.0,0.0,100,0.00,,---,0.00,VWS V14.01,2013-09-20 05:10:00,
2013-09-20 01:20:00,64.3,64.3,29.94,North,3,0.0,0.0,100,0.00,,---,0.00,VWS V14.01,2013-09-20 05:20:00,
2013-09-20 01:30:00,64.5,64.5,29.94,North,3,0.0,0.0,100,0.00,,---,0.00,VWS V14.01,2013-09-20 05:30:00,
2013-09-20 01:40:00,64.5,64.5,29.94,North,3,0.0,0.0,100,0.00,,---,0.00,VWS V14.01,2013-09-20 05:40:00,
2013-09-20 01:50:00,64.7,64.7,29.94,North,3,0.0,0.0,100,0.00,,---,0.00,VWS V14.01,2013-09-20 05:50:00,
2013-09-20 02:00:00,64.7,64.7,29.94,North,3,0.0,0.0,100,0.00,,---,0.00,VWS V14.01,2013-09-20 06:00:00,
2013-09-20 02:10:00,64.8,64.8,29.94,North,3,0.0,0.0,100,0.00,,---,0.00,VWS V14.01,2013-09-20 06:10:00,
2013-09-20 02:20:00,65.0,65.0,29.94,North,3,0.0,0.0,100,0.00,,---,0.00,VWS V14.01,2013-09-20 06:20:00,
2013-09-20 02:30:00,65.0,65.0,29.94,North,3,0.0,0.0,100,0.00,,---,0.00,VWS V14.01,2013-09-20 06:30:00,
2013-09-20 02:40:00,65.0,65.0,29.94,North,3,0.0,0.0,100,0.00,,---,0.00,VWS V14.01,2013-09-20 06:40:00,
2013-09-20 02:50:00,64.8,64.8,29.93,North,3,0.0,0.0,100,0.00,,---,0.00,VWS V14.01,2013-09-20 06:50:00,
2013-09-20 03:00:00,64.8,64.8,29.93,North,3,0.0,0.0,100,0.00,,---,0.00,VWS V14.01,2013-09-20 07:00:00,
2013-09-20 03:10:00,64.7,64.7,29.93,North,3,0.0,0.0,100,0.00,,---,0.00,VWS V14.01,2013-09-20 07:10:00,
2013-09-20 03:20:00,64.7,64.7,29.93,North,3,0.0,0.0,100,0.00,,---,0.00,VWS V14.01,2013-09-20 07:20:00,
2013-09-20 03:30:00,64.8,64.8,29.93,North,3,0.0,0.0,100,0.00,,---,0.00,VWS V14.01,2013-09-20 07:30:00,
2013-09-20 03:40:00,65.0,65.0,29.93,North,3,0.0,0.0,100,0.00,,---,0.00,VWS V14.01,2013-09-20 07:40:00,
2013-09-20 03:50:00,65.0,65.0,29.92,North,3,0.0,0.0,100,0.00,,---,0.00,VWS V14.01,2013-09-20 07:50:00,
2013-09-20 04:00:00,65.2,65.2,29.92,North,3,0.0,0.0,100,0.00,,---,0.00,VWS V14.01,2013-09-20 08:00:00,
2013-09-20 04:10:00,65.2,65.2,29.92,North,3,0.0,0.0,100,0.00,,---,0.00,VWS V14.01,2013-09-20 08:10:00,
2013-09-20 04:20:00,65.2,65.2,29.92,North,3,0.0,0.0,100,0.00,,---,0.00,VWS V14.01,2013-09-20 08:20:00,
2013-09-20 04:30:00,65.0,65.0,29.92,North,3,0.0,0.0,100,0.00,,---,0.00,VWS V14.01,2013-09-20 08:30:00,
2013-09-20 04:40:00,65.0,65.0,29.92,North,3,0.0,0.0,100,0.00,,---,0.00,VWS V14.01,2013-09-20 08:40:00,
2013-09-20 04:50:00,64.7,64.7,29.92,North,3,0.0,0.0,100,0.00,,---,0.00,VWS V14.01,2013-09-20 08:50:00,
2013-09-20 05:00:00,64.5,64.5,29.92,North,3,0.0,0.0,100,0.00,,---,0.00,VWS V14.01,2013-09-20 09:00:00,
2013-09-20 05:10:00,64.5,64.5,29.92,North,3,0.0,0.0,100,0.00,,---,0.00,VWS V14.01,2013-09-20 09:10:00,
2013-09-20 05:20:00,64.3,64.3,29.92,North,3,0.0,0.0,100,0.00,,---,0.00,VWS V14.01,2013-09-20 09:20:00,
2013-09-20 05:30:00,64.2,64.2,29.93,North,3,0.0,0.0,100,0.00,,---,0.00,VWS V14.01,2013-09-20 09:30:00,
2013-09-20 05:40:00,64.0,64.0,29.93,North,3,0.0,0.0,100,0.00,,---,0.00,VWS V14.01,2013-09-20 09:40:00,
2013-09-20 05:50:00,64.0,64.0,29.93,North,3,0.0,0.0,100,0.06,,---,0.06,VWS V14.01,2013-09-20 09:50:00,
2013-09-20 06:00:00,63.1,63.1,29.92,NNE,14,0.0,0.0,100,0.08,,---,0.08,VWS V14.01,2013-09-20 10:00:00,
2013-09-20 06:10:00,62.7,62.7,29.92,ENE,71,0.0,0.0,100,0.08,,---,0.08,VWS V14.01,2013-09-20 10:10:00,
2013-09-20 06:20:00,62.6,62.6,29.92,ENE,71,0.0,0.0,100,0.08,,---,0.08,VWS V14.01,2013-09-20 10:20:00,
2013-09-20 06:30:00,62.4,62.4,29.93,ENE,71,0.0,0.0,100,0.08,,---,0.08,VWS V14.01,2013-09-20 10:30:00,
2013-09-20 06:40:00,62.4,62.4,29.93,ENE,71,0.0,0.0,100,0.08,,---,0.08,VWS V14.01,2013-09-20 10:40:00,
2013-09-20 06:50:00,62.3,62.3,29.93,ENE,71,0.0,0.0,100,0.08,,---,0.08,VWS V14.01,2013-09-20 10:50:00,
2013-09-20 07:00:00,62.1,62.1,29.93,ENE,71,0.0,0.0,100,0.02,,---,0.08,VWS V14.01,2013-09-20 11:00:00,
2013-09-20 07:10:00,62.1,62.1,29.93,ENE,71,0.0,0.0,100,0.00,,---,0.08,VWS V14.01,2013-09-20 11:10:00,
2013-09-20 07:20:00,62.1,62.1,29.94,ENE,71,0.0,0.0,100,0.00,,---,0.08,VWS V14.01,2013-09-20 11:20:00,
2013-09-20 07:30:00,62.0,62.0,29.94,ENE,71,0.0,0.0,100,0.00,,---,0.08,VWS V14.01,2013-09-20 11:30:00,
2013-09-20 07:40:00,62.1,62.1,29.94,ENE,71,0.0,0.0,100,0.01,,---,0.09,VWS V14.01,2013-09-20 11:40:00,
2013-09-20 07:50:00,62.3,62.3,29.94,ENE,71,0.0,0.0,100,0.02,,---,0.10,VWS V14.01,2013-09-20 11:50:00,
2013-09-20 08:00:00,62.1,62.1,29.94,ENE,71,0.0,0.0,100,0.02,,---,0.10,VWS V14.01,2013-09-20 12:00:00,
2013-09-20 08:10:00,62.3,62.3,29.94,ENE,71,0.0,0.0,100,0.07,,---,0.15,VWS V14.01,2013-09-20 12:10:00,
2013-09-20 08:20:00,62.1,62.1,29.95,ENE,71,0.0,0.0,100,0.11,,---,0.19,VWS V14.01,2013-09-20 12:20:00,
2013-09-20 08:30:00,62.0,62.0,29.95,ENE,71,0.0,0.0,100,0.17,,---,0.25,VWS V14.01,2013-09-20 12:30:00,
2013-09-20 08:40:00,62.1,62.1,29.95,ENE,71,0.0,0.0,100,0.18,,---,0.26,VWS V14.01,2013-09-20 12:40:00,
2013-09-20 08:50:00,62.3,62.3,29.95,ENE,71,0.0,0.0,100,0.18,,---,0.27,VWS V14.01,2013-09-20 12:50:00,
2013-09-20 09:00:00,62.4,62.4,29.95,ENE,71,0.0,0.0,100,0.17,,---,0.27,VWS V14.01,2013-09-20 13:00:00,
2013-09-20 09:10:00,62.4,62.4,29.95,ENE,71,0.0,0.0,100,0.17,,---,0.27,VWS V14.01,2013-09-20 13:10:00,
2013-09-20 09:20:00,62.3,62.3,29.96,ENE,71,0.0,0.0,100,0.12,,---,0.27,VWS V14.01,2013-09-20 13:20:00,
2013-09-20 09:30:00,62.3,62.3,29.95,East,100,0.0,1.0,100,0.08,,---,0.27,VWS V14.01,2013-09-20 13:30:00,
2013-09-20 09:40:00,62.4,62.4,29.95,East,100,0.0,1.0,100,0.02,,---,0.27,VWS V14.01,2013-09-20 13:40:00,
2013-09-20 09:50:00,62.6,62.6,29.95,ENE,59,0.0,2.0,100,0.01,,---,0.27,VWS V14.01,2013-09-20 13:50:00,
2013-09-20 10:00:00,62.7,62.7,29.94,ENE,71,0.0,0.0,100,0.00,,---,0.27,VWS V14.01,2013-09-20 14:00:00,
2013-09-20 10:10:00,63.2,63.2,29.94,East,88,0.0,2.0,100,0.00,,---,0.27,VWS V14.01,2013-09-20 14:10:00,
2013-09-20 10:20:00,63.5,63.5,29.94,NE,51,0.0,0.0,100,0.00,,---,0.27,VWS V14.01,2013-09-20 14:20:00,
2013-09-20 10:30:00,63.5,63.5,29.94,ENE,78,0.0,0.0,100,0.00,,---,0.27,VWS V14.01,2013-09-20 14:30:00,
2013-09-20 10:40:00,63.7,63.7,29.94,ENE,78,0.0,0.0,100,0.00,,---,0.27,VWS V14.01,2013-09-20 14:40:00,
2013-09-20 10:50:00,63.9,63.9,29.94,ENE,78,0.0,0.0,100,0.00,,---,0.27,VWS V14.01,2013-09-20 14:50:00,
2013-09-20 11:00:00,64.0,64.0,29.93,ENE,78,0.0,0.0,100,0.00,,---,0.27,VWS V14.01,2013-09-20 15:00:00,
2013-09-20 11:10:00,64.3,64.3,29.93,East,79,0.0,2.0,100,0.00,,---,0.27,VWS V14.01,2013-09-20 15:10:00,
2013-09-20 11:20:00,64.7,64.7,29.93,East,97,0.0,1.0,100,0.00,,---,0.27,VWS V14.01,2013-09-20 15:20:00,
2013-09-20 11:30:00,65.0,65.0,29.93,ENE,76,0.0,2.0,100,0.00,,---,0.27,VWS V14.01,2013-09-20 15:30:00,
2013-09-20 11:40:00,65.3,65.3,29.93,ENE,72,0.0,3.0,100,0.00,,---,0.27,VWS V14.01,2013-09-20 15:40:00,
2013-09-20 11:50:00,65.6,65.6,29.93,ENE,66,0.0,0.0,100,0.00,,---,0.27,VWS V14.01,2013-09-20 15:50:00,
2013-09-20 12:00:00,65.8,65.8,29.93,ENE,65,0.0,2.0,100,0.00,,---,0.27,VWS V14.01,2013-09-20 16:00:00,
2013-09-20 12:10:00,66.0,66.0,29.93,ENE,65,0.0,0.0,100,0.00,,---,0.27,VWS V14.01,2013-09-20 16:10:00,
2013-09-20 12:20:00,66.3,66.3,29.93,ENE,65,0.0,0.0,100,0.00,,---,0.27,VWS V14.01,2013-09-20 16:20:00,
2013-09-20 12:30:00,66.3,66.3,29.92,NE,51,0.0,2.0,100,0.00,,---,0.27,VWS V14.01,2013-09-20 16:30:00,
2013-09-20 12:40:00,67.1,67.1,29.92,NE,54,0.0,1.0,100,0.00,,---,0.27,VWS V14.01,2013-09-20 16:40:00,
2013-09-20 12:50:00,67.1,67.1,29.92,NE,52,0.0,0.0,100,0.00,,---,0.27,VWS V14.01,2013-09-20 16:50:00,
2013-09-20 13:00:00,67.1,67.1,29.92,NNE,20,0.0,1.0,100,0.00,,---,0.27,VWS V14.01,2013-09-20 17:00:00,
2013-09-20 13:10:00,67.3,67.3,29.92,ENE,78,0.0,1.0,100,0.00,,---,0.27,VWS V14.01,2013-09-20 17:10:00,
2013-09-20 13:20:00,67.8,67.8,29.91,ENE,76,0.0,0.0,100,0.00,,---,0.27,VWS V14.01,2013-09-20 17:20:00,
2013-09-20 13:30:00,67.9,67.9,29.90,SE,126,0.0,1.0,100,0.00,,---,0.27,VWS V14.01,2013-09-20 17:30:00,
2013-09-20 13:40:00,68.4,68.4,29.90,NE,40,0.0,0.0,100,0.00,,---,0.27,VWS V14.01,2013-09-20 17:40:00,
2013-09-20 13:50:00,68.6,68.6,29.90,East,86,0.0,5.0,100,0.00,,---,0.27,VWS V14.01,2013-09-20 17:50:00,
2013-09-20 14:00:00,68.6,68.6,29.89,ENE,59,0.0,3.0,100,0.00,,---,0.27,VWS V14.01,2013-09-20 18:00:00,
2013-09-20 14:10:00,68.9,68.9,29.89,ENE,69,0.0,1.0,100,0.00,,---,0.27,VWS V14.01,2013-09-20 18:10:00,
2013-09-20 14:20:00,69.3,69.3,29.89,NE,40,0.0,4.0,100,0.00,,---,0.27,VWS V14.01,2013-09-20 18:20:00,
2013-09-20 14:30:00,69.4,69.4,29.89,East,80,0.0,0.0,100,0.00,,---,0.27,VWS V14.01,2013-09-20 18:30:00,
2013-09-20 14:40:00,69.4,69.4,29.89,ENE,72,0.0,0.0,100,0.00,,---,0.27,VWS V14.01,2013-09-20 18:40:00,
2013-09-20 14:50:00,69.4,69.1,29.88,ENE,71,0.0,0.0,99,0.00,,---,0.27,VWS V14.01,2013-09-20 18:50:00,
2013-09-20 15:00:00,69.4,69.1,29.88,East,83,0.0,0.0,99,0.00,,---,0.27,VWS V14.01,2013-09-20 19:00:00,
2013-09-20 15:10:00,69.4,69.4,29.88,East,83,0.0,0.0,100,0.00,,---,0.27,VWS V14.01,2013-09-20 19:10:00,
2013-09-20 15:20:00,69.6,69.6,29.87,East,83,0.0,0.0,100,0.00,,---,0.27,VWS V14.01,2013-09-20 19:20:00,
2013-09-20 15:30:00,69.4,69.4,29.87,East,83,0.0,0.0,100,0.00,,---,0.27,VWS V14.01,2013-09-20 19:30:00,
2013-09-20 15:40:00,69.4,69.4,29.87,East,93,0.0,1.0,100,0.00,,---,0.27,VWS V14.01,2013-09-20 19:40:00,
2013-09-20 15:50:00,69.6,69.3,29.86,ENE,72,0.0,0.0,99,0.00,,---,0.27,VWS V14.01,2013-09-20 19:50:00,
2013-09-20 16:00:00,69.8,69.5,29.86,ENE,75,0.0,0.0,99,0.00,,---,0.27,VWS V14.01,2013-09-20 20:00:00,
2013-09-20 16:10:00,69.9,69.6,29.86,East,79,0.0,0.0,99,0.00,,---,0.27,VWS V14.01,2013-09-20 20:10:00,
2013-09-20 16:20:00,70.3,70.0,29.86,ENE,72,0.0,0.0,99,0.00,,---,0.27,VWS V14.01,2013-09-20 20:20:00,
2013-09-20 16:30:00,70.4,70.4,29.85,ENE,72,0.0,0.0,100,0.00,,---,0.27,VWS V14.01,2013-09-20 20:30:00,
2013-09-20 16:40:00,70.3,70.0,29.85,ENE,66,0.0,0.0,99,0.00,,---,0.27,VWS V14.01,2013-09-20 20:40:00,
2013-09-20 16:50:00,70.3,69.7,29.85,East,92,0.0,0.0,98,0.00,,---,0.27,VWS V14.01,2013-09-20 20:50:00,
2013-09-20 17:00:00,70.3,70.0,29.84,NE,49,0.0,0.0,99,0.00,,---,0.27,VWS V14.01,2013-09-20 21:00:00,
2013-09-20 17:10:00,70.4,70.1,29.84,SE,145,0.0,3.0,99,0.00,,---,0.27,VWS V14.01,2013-09-20 21:10:00,
2013-09-20 17:20:00,70.3,70.0,29.84,SE,131,0.0,0.0,99,0.00,,---,0.27,VWS V14.01,2013-09-20 21:20:00,
2013-09-20 17:30:00,70.3,69.7,29.84,East,90,0.0,0.0,98,0.00,,---,0.27,VWS V14.01,2013-09-20 21:30:00,
2013-09-20 17:40:00,70.1,69.8,29.84,East,95,0.0,0.0,99,0.00,,---,0.27,VWS V14.01,2013-09-20 21:40:00,
2013-09-20 17:50:00,69.9,69.6,29.84,East,95,0.0,0.0,99,0.00,,---,0.27,VWS V14.01,2013-09-20 21:50:00,
2013-09-20 18:00:00,69.6,69.3,29.84,ESE,112,0.0,0.0,99,0.00,,---,0.27,VWS V14.01,2013-09-20 22:00:00,
2013-09-20 18:10:00,69.6,69.6,29.84,ESE,112,0.0,0.0,100,0.00,,---,0.27,VWS V14.01,2013-09-20 22:10:00,
2013-09-20 18:20:00,69.3,69.3,29.84,ESE,112,0.0,0.0,100,0.00,,---,0.27,VWS V14.01,2013-09-20 22:20:00,
2013-09-20 18:30:00,69.3,69.3,29.84,ESE,112,0.0,0.0,100,0.00,,---,0.27,VWS V14.01,2013-09-20 22:30:00,
2013-09-20 18:40:00,69.3,69.3,29.84,ESE,112,0.0,0.0,100,0.00,,---,0.27,VWS V14.01,2013-09-20 22:40:00,
2013-09-20 18:50:00,69.1,69.1,29.84,ESE,112,0.0,0.0,100,0.00,,---,0.27,VWS V14.01,2013-09-20 22:50:00,
2013-09-20 19:00:00,68.9,68.9,29.84,ESE,112,0.0,0.0,100,0.00,,---,0.27,VWS V14.01,2013-09-20 23:00:00,
2013-09-20 19:10:00,68.8,68.8,29.84,ESE,112,0.0,0.0,100,0.00,,---,0.27,VWS V14.01,2013-09-20 23:10:00,
2013-09-20 19:20:00,68.6,68.6,29.84,ESE,112,0.0,0.0,100,0.00,,---,0.27,VWS V14.01,2013-09-20 23:20:00,
2013-09-20 19:30:00,68.4,68.4,29.84,ESE,112,0.0,0.0,100,0.00,,---,0.27,VWS V14.01,2013-09-20 23:30:00,
2013-09-20 19:40:00,68.3,68.3,29.84,ESE,112,0.0,0.0,100,0.00,,---,0.27,VWS V14.01,2013-09-20 23:40:00,
2013-09-20 19:50:00,68.1,68.1,29.84,ESE,112,0.0,0.0,100,0.00,,---,0.27,VWS V14.01,2013-09-20 23:50:00,
2013-09-20 20:00:00,68.1,68.1,29.83,East,95,0.0,0.0,100,0.00,,---,0.27,VWS V14.01,2013-09-21 00:00:00,
2013-09-20 20:10:00,67.9,67.9,29.83,East,95,0.0,0.0,100,0.00,,---,0.27,VWS V14.01,2013-09-21 00:10:00,
2013-09-20 20:20:00,67.9,67.9,29.84,East,95,0.0,0.0,100,0.00,,---,0.27,VWS V14.01,2013-09-21 00:20:00,
2013-09-20 20:30:00,67.8,67.8,29.84,East,95,0.0,0.0,100,0.00,,---,0.27,VWS V14.01,2013-09-21 00:30:00,
2013-09-20 20:40:00,67.8,67.8,29.84,East,95,0.0,0.0,100,0.00,,---,0.27,VWS V14.01,2013-09-21 00:40:00,
2013-09-20 20:50:00,67.8,67.8,29.85,East,95,0.0,0.0,100,0.00,,---,0.27,VWS V14.01,2013-09-21 00:50:00,
2013-09-20 21:00:00,68.1,68.1,29.83,East,95,0.0,0.0,100,0.00,,---,0.27,VWS V14.01,2013-09-21 01:00:00,
2013-09-20 21:10:00,67.6,67.6,29.85,East,95,0.0,0.0,100,0.00,,---,0.27,VWS V14.01,2013-09-21 01:10:00,
2013-09-20 21:20:00,67.6,67.6,29.85,East,95,0.0,0.0,100,0.00,,---,0.27,VWS V14.01,2013-09-21 01:20:00,
2013-09-20 21:30:00,67.6,67.6,29.84,East,95,0.0,0.0,100,0.00,,---,0.27,VWS V14.01,2013-09-21 01:30:00,
2013-09-20 21:40:00,67.6,67.6,29.84,East,95,0.0,0.0,100,0.00,,---,0.27,VWS V14.01,2013-09-21 01:40:00,
2013-09-20 21:50:00,67.4,67.4,29.84,East,95,0.0,0.0,100,0.00,,---,0.27,VWS V14.01,2013-09-21 01:50:00,
2013-09-20 22:00:00,67.4,67.4,29.84,East,95,0.0,0.0,100,0.00,,---,0.27,VWS V14.01,2013-09-21 02:00:00,
2013-09-20 22:10:00,67.4,67.4,29.84,East,95,0.0,0.0,100,0.00,,---,0.27,VWS V14.01,2013-09-21 02:10:00,
2013-09-20 22:20:00,67.3,67.3,29.83,East,95,0.0,0.0,100,0.00,,---,0.27,VWS V14.01,2013-09-21 02:20:00,
2013-09-20 22:30:00,67.3,67.3,29.83,East,95,0.0,0.0,100,0.00,,---,0.27,VWS V14.01,2013-09-21 02:30:00,
2013-09-20 22:40:00,67.1,67.1,29.83,East,92,0.0,0.0,100,0.00,,---,0.27,VWS V14.01,2013-09-21 02:40:00,
2013-09-20 22:50:00,67.3,67.3,29.83,East,92,0.0,0.0,100,0.00,,---,0.27,VWS V14.01,2013-09-21 02:50:00,
2013-09-20 23:00:00,67.3,67.3,29.83,East,92,0.0,0.0,100,0.00,,---,0.27,VWS V14.01,2013-09-21 03:00:00,
2013-09-20 23:10:00,67.1,67.1,29.83,East,92,0.0,0.0,100,0.00,,---,0.27,VWS V14.01,2013-09-21 03:10:00,
2013-09-20 23:20:00,67.1,67.1,29.83,East,92,0.0,0.0,100,0.00,,---,0.27,VWS V14.01,2013-09-21 03:20:00,
2013-09-20 23:30:00,67.1,67.1,29.82,East,92,0.0,0.0,100,0.00,,---,0.27,VWS V14.01,2013-09-21 03:30:00,
2013-09-20 23:40:00,66.9,66.9,29.82,East,92,0.0,0.0,100,0.00,,---,0.27,VWS V14.01,2013-09-21 03:40:00,
2013-09-20 23:50:00,66.9,66.9,29.83,East,92,0.0,0.0,100,0.00,,---,0.27,VWS V14.01,2013-09-21 03:50:00,